sensor_id;sensor_type;location;lat;lon;timestamp;pressure;altitude;pressure_sealevel;temperature;humidity
75745;BME280;74462;51.366;-0.222;2023-12-20T00:00:52;101949.02;;;5.93;77.92
75745;BME280;74462;51.366;-0.222;2023-12-20T00:01:56;101952.80;;;5.90;77.94
75745;BME280;74462;51.366;-0.222;2023-12-20T00:03:01;101956.33;;;5.90;77.80
75745;BME280;74462;51.366;-0.222;2023-12-20T00:04:05;101962.52;;;5.88;77.88
75745;BME280;74462;51.366;-0.222;2023-12-20T00:05:10;101962.66;;;5.90;77.93
75745;BME280;74462;51.366;-0.222;2023-12-20T00:06:15;101959.24;;;5.93;77.86
75745;BME280;74462;51.366;-0.222;2023-12-20T00:07:19;101959.70;;;5.94;77.77
75745;BME280;74462;51.366;-0.222;2023-12-20T00:08:24;101960.02;;;5.95;77.85
75745;BME280;74462;51.366;-0.222;2023-12-20T00:09:28;101961.27;;;5.95;77.85
75745;BME280;74462;51.366;-0.222;2023-12-20T00:10:32;101962.17;;;5.90;77.79
75745;BME280;74462;51.366;-0.222;2023-12-20T00:11:37;101958.86;;;5.83;78.19
75745;BME280;74462;51.366;-0.222;2023-12-20T00:12:42;101961.67;;;5.88;78.19
75745;BME280;74462;51.366;-0.222;2023-12-20T00:13:46;101962.50;;;5.85;78.25
75745;BME280;74462;51.366;-0.222;2023-12-20T00:14:51;101961.63;;;5.85;78.24
75745;BME280;74462;51.366;-0.222;2023-12-20T00:15:55;101963.36;;;5.77;78.45
75745;BME280;74462;51.366;-0.222;2023-12-20T00:17:00;101957.48;;;5.82;78.37
75745;BME280;74462;51.366;-0.222;2023-12-20T00:18:05;101963.79;;;5.79;78.47
75745;BME280;74462;51.366;-0.222;2023-12-20T00:19:10;101961.89;;;5.82;78.21
75745;BME280;74462;51.366;-0.222;2023-12-20T00:20:15;101963.00;;;5.81;78.40
75745;BME280;74462;51.366;-0.222;2023-12-20T00:21:19;101963.34;;;5.73;78.68
75745;BME280;74462;51.366;-0.222;2023-12-20T00:22:23;101956.26;;;5.78;78.57
75745;BME280;74462;51.366;-0.222;2023-12-20T00:23:28;101956.27;;;5.74;78.61
75745;BME280;74462;51.366;-0.222;2023-12-20T00:24:32;101951.71;;;5.73;78.77
75745;BME280;74462;51.366;-0.222;2023-12-20T00:25:37;101949.94;;;5.73;78.51
75745;BME280;74462;51.366;-0.222;2023-12-20T00:26:41;101950.20;;;5.75;78.59
75745;BME280;74462;51.366;-0.222;2023-12-20T00:27:46;101950.29;;;5.78;78.39
75745;BME280;74462;51.366;-0.222;2023-12-20T00:28:50;101950.20;;;5.75;78.63
75745;BME280;74462;51.366;-0.222;2023-12-20T00:29:55;101952.79;;;5.73;78.75
75745;BME280;74462;51.366;-0.222;2023-12-20T00:30:59;101950.54;;;5.76;78.82
75745;BME280;74462;51.366;-0.222;2023-12-20T00:32:04;101947.44;;;5.70;78.84
75745;BME280;74462;51.366;-0.222;2023-12-20T00:33:08;101944.38;;;5.76;78.91
75745;BME280;74462;51.366;-0.222;2023-12-20T00:34:13;101948.64;;;5.75;78.55
75745;BME280;74462;51.366;-0.222;2023-12-20T00:35:18;101953.91;;;5.75;78.71
75745;BME280;74462;51.366;-0.222;2023-12-20T00:36:22;101955.33;;;5.71;78.65
75745;BME280;74462;51.366;-0.222;2023-12-20T00:37:27;101955.55;;;5.69;78.76
75745;BME280;74462;51.366;-0.222;2023-12-20T00:38:31;101953.41;;;5.70;78.88
75745;BME280;74462;51.366;-0.222;2023-12-20T00:39:36;101955.28;;;5.76;78.53
75745;BME280;74462;51.366;-0.222;2023-12-20T00:40:40;101957.18;;;5.73;78.64
75745;BME280;74462;51.366;-0.222;2023-12-20T00:41:45;101961.75;;;5.73;78.75
75745;BME280;74462;51.366;-0.222;2023-12-20T00:42:49;101967.80;;;5.76;78.53
75745;BME280;74462;51.366;-0.222;2023-12-20T00:43:54;101969.96;;;5.75;78.54
75745;BME280;74462;51.366;-0.222;2023-12-20T00:44:59;101968.83;;;5.73;78.56
75745;BME280;74462;51.366;-0.222;2023-12-20T00:46:04;101968.36;;;5.71;78.91
75745;BME280;74462;51.366;-0.222;2023-12-20T00:47:09;101970.02;;;5.64;78.96
75745;BME280;74462;51.366;-0.222;2023-12-20T00:48:13;101965.46;;;5.64;79.06
75745;BME280;74462;51.366;-0.222;2023-12-20T00:49:19;101966.46;;;5.70;78.98
75745;BME280;74462;51.366;-0.222;2023-12-20T00:50:24;101960.54;;;5.68;79.07
75745;BME280;74462;51.366;-0.222;2023-12-20T00:51:28;101955.48;;;5.71;78.85
75745;BME280;74462;51.366;-0.222;2023-12-20T00:52:32;101954.54;;;5.73;78.96
75745;BME280;74462;51.366;-0.222;2023-12-20T00:53:37;101953.35;;;5.72;78.96
75745;BME280;74462;51.366;-0.222;2023-12-20T00:54:41;101949.57;;;5.74;78.83
75745;BME280;74462;51.366;-0.222;2023-12-20T00:55:46;101951.11;;;5.75;78.88
75745;BME280;74462;51.366;-0.222;2023-12-20T00:56:51;101948.45;;;5.75;78.76
75745;BME280;74462;51.366;-0.222;2023-12-20T00:57:55;101944.33;;;5.77;78.62
75745;BME280;74462;51.366;-0.222;2023-12-20T00:59:00;101941.61;;;5.79;78.74
75745;BME280;74462;51.366;-0.222;2023-12-20T01:00:07;101939.69;;;5.78;78.51
75745;BME280;74462;51.366;-0.222;2023-12-20T01:01:13;101939.85;;;5.83;78.29
75745;BME280;74462;51.366;-0.222;2023-12-20T01:02:17;101935.14;;;5.82;78.40
75745;BME280;74462;51.366;-0.222;2023-12-20T01:03:22;101935.38;;;5.84;78.39
75745;BME280;74462;51.366;-0.222;2023-12-20T01:04:26;101932.99;;;5.86;78.16
75745;BME280;74462;51.366;-0.222;2023-12-20T01:05:31;101935.41;;;5.83;78.18
75745;BME280;74462;51.366;-0.222;2023-12-20T01:06:35;101931.23;;;5.86;78.05
75745;BME280;74462;51.366;-0.222;2023-12-20T01:07:40;101920.92;;;5.89;78.25
75745;BME280;74462;51.366;-0.222;2023-12-20T01:08:44;101920.20;;;5.90;78.13
75745;BME280;74462;51.366;-0.222;2023-12-20T01:09:49;101919.78;;;5.92;78.25
75745;BME280;74462;51.366;-0.222;2023-12-20T01:10:53;101924.05;;;5.85;78.33
75745;BME280;74462;51.366;-0.222;2023-12-20T01:11:58;101927.70;;;5.82;78.18
75745;BME280;74462;51.366;-0.222;2023-12-20T01:13:02;101927.54;;;5.82;78.27
75745;BME280;74462;51.366;-0.222;2023-12-20T01:14:07;101921.31;;;5.84;78.41
75745;BME280;74462;51.366;-0.222;2023-12-20T01:15:12;101913.34;;;5.89;78.39
75745;BME280;74462;51.366;-0.222;2023-12-20T01:16:16;101910.50;;;5.90;78.38
75745;BME280;74462;51.366;-0.222;2023-12-20T01:17:21;101906.88;;;5.93;78.03
75745;BME280;74462;51.366;-0.222;2023-12-20T01:18:25;101913.25;;;5.92;78.14
75745;BME280;74462;51.366;-0.222;2023-12-20T01:19:30;101915.65;;;5.94;78.20
75745;BME280;74462;51.366;-0.222;2023-12-20T01:20:34;101914.13;;;5.93;78.14
75745;BME280;74462;51.366;-0.222;2023-12-20T01:21:39;101913.73;;;5.93;78.21
75745;BME280;74462;51.366;-0.222;2023-12-20T01:22:43;101915.13;;;5.94;77.95
75745;BME280;74462;51.366;-0.222;2023-12-20T01:23:49;101906.93;;;5.96;77.96
75745;BME280;74462;51.366;-0.222;2023-12-20T01:24:53;101903.58;;;6.00;77.93
75745;BME280;74462;51.366;-0.222;2023-12-20T01:25:58;101900.13;;;5.98;77.87
75745;BME280;74462;51.366;-0.222;2023-12-20T01:27:03;101898.54;;;6.02;77.80
75745;BME280;74462;51.366;-0.222;2023-12-20T01:28:08;101897.65;;;6.02;77.81
75745;BME280;74462;51.366;-0.222;2023-12-20T01:29:12;101894.23;;;6.04;77.82
75745;BME280;74462;51.366;-0.222;2023-12-20T01:30:17;101893.50;;;6.05;77.86
75745;BME280;74462;51.366;-0.222;2023-12-20T01:31:22;101900.28;;;6.07;77.75
75745;BME280;74462;51.366;-0.222;2023-12-20T01:32:26;101899.45;;;6.06;77.77
75745;BME280;74462;51.366;-0.222;2023-12-20T01:33:31;101904.77;;;6.05;77.75
75745;BME280;74462;51.366;-0.222;2023-12-20T01:34:35;101900.42;;;6.04;77.70
75745;BME280;74462;51.366;-0.222;2023-12-20T01:35:40;101899.59;;;6.06;77.99
75745;BME280;74462;51.366;-0.222;2023-12-20T01:36:44;101899.13;;;6.09;78.01
75745;BME280;74462;51.366;-0.222;2023-12-20T01:37:49;101897.30;;;6.10;77.89
75745;BME280;74462;51.366;-0.222;2023-12-20T01:38:53;101899.20;;;6.11;77.79
75745;BME280;74462;51.366;-0.222;2023-12-20T01:39:57;101900.15;;;6.14;77.58
75745;BME280;74462;51.366;-0.222;2023-12-20T01:41:02;101903.09;;;6.11;77.72
75745;BME280;74462;51.366;-0.222;2023-12-20T01:42:07;101902.98;;;6.10;77.71
75745;BME280;74462;51.366;-0.222;2023-12-20T01:43:12;101903.20;;;6.12;77.86
75745;BME280;74462;51.366;-0.222;2023-12-20T01:44:17;101899.16;;;6.17;77.50
75745;BME280;74462;51.366;-0.222;2023-12-20T01:45:21;101902.80;;;6.19;77.62
75745;BME280;74462;51.366;-0.222;2023-12-20T01:46:26;101904.31;;;6.20;77.60
75745;BME280;74462;51.366;-0.222;2023-12-20T01:47:31;101905.28;;;6.13;77.57
75745;BME280;74462;51.366;-0.222;2023-12-20T01:48:36;101909.10;;;6.15;77.82
75745;BME280;74462;51.366;-0.222;2023-12-20T01:49:41;101908.78;;;6.14;77.93
75745;BME280;74462;51.366;-0.222;2023-12-20T01:50:46;101912.96;;;6.15;77.81
75745;BME280;74462;51.366;-0.222;2023-12-20T01:51:51;101913.31;;;6.16;77.93
75745;BME280;74462;51.366;-0.222;2023-12-20T01:52:56;101910.52;;;6.14;77.91
75745;BME280;74462;51.366;-0.222;2023-12-20T01:54:01;101916.84;;;6.16;77.66
75745;BME280;74462;51.366;-0.222;2023-12-20T01:55:08;101917.16;;;6.17;77.70
75745;BME280;74462;51.366;-0.222;2023-12-20T01:56:14;101915.86;;;6.18;77.75
75745;BME280;74462;51.366;-0.222;2023-12-20T01:57:19;101907.38;;;6.19;77.66
75745;BME280;74462;51.366;-0.222;2023-12-20T01:58:24;101908.77;;;6.23;77.81
75745;BME280;74462;51.366;-0.222;2023-12-20T01:59:30;101907.56;;;6.27;77.42
75745;BME280;74462;51.366;-0.222;2023-12-20T02:00:35;101906.72;;;6.26;77.46
75745;BME280;74462;51.366;-0.222;2023-12-20T02:01:40;101910.39;;;6.26;77.47
75745;BME280;74462;51.366;-0.222;2023-12-20T02:02:46;101909.92;;;6.25;77.50
75745;BME280;74462;51.366;-0.222;2023-12-20T02:03:51;101913.45;;;6.21;77.39
75745;BME280;74462;51.366;-0.222;2023-12-20T02:04:56;101911.91;;;6.24;77.50
75745;BME280;74462;51.366;-0.222;2023-12-20T02:06:00;101916.64;;;6.25;77.42
75745;BME280;74462;51.366;-0.222;2023-12-20T02:07:05;101912.15;;;6.22;77.54
75745;BME280;74462;51.366;-0.222;2023-12-20T02:08:11;101911.65;;;6.26;77.56
75745;BME280;74462;51.366;-0.222;2023-12-20T02:09:16;101906.98;;;6.20;77.49
75745;BME280;74462;51.366;-0.222;2023-12-20T02:10:20;101905.41;;;6.19;77.52
75745;BME280;74462;51.366;-0.222;2023-12-20T02:11:25;101907.20;;;6.23;77.41
75745;BME280;74462;51.366;-0.222;2023-12-20T02:12:30;101909.38;;;6.22;77.66
75745;BME280;74462;51.366;-0.222;2023-12-20T02:13:35;101906.96;;;6.24;77.64
75745;BME280;74462;51.366;-0.222;2023-12-20T02:14:39;101908.52;;;6.21;77.73
75745;BME280;74462;51.366;-0.222;2023-12-20T02:15:44;101903.02;;;6.21;77.62
75745;BME280;74462;51.366;-0.222;2023-12-20T02:16:48;101905.40;;;6.24;77.47
75745;BME280;74462;51.366;-0.222;2023-12-20T02:17:53;101901.52;;;6.24;77.60
75745;BME280;74462;51.366;-0.222;2023-12-20T02:18:58;101902.75;;;6.24;77.55
75745;BME280;74462;51.366;-0.222;2023-12-20T02:20:02;101900.52;;;6.22;77.53
75745;BME280;74462;51.366;-0.222;2023-12-20T02:21:08;101899.41;;;6.15;77.91
75745;BME280;74462;51.366;-0.222;2023-12-20T02:22:13;101895.67;;;6.11;78.00
75745;BME280;74462;51.366;-0.222;2023-12-20T02:23:18;101888.33;;;6.14;77.81
75745;BME280;74462;51.366;-0.222;2023-12-20T02:24:22;101889.67;;;6.16;78.14
75745;BME280;74462;51.366;-0.222;2023-12-20T02:25:27;101885.56;;;6.13;77.96
75745;BME280;74462;51.366;-0.222;2023-12-20T02:26:33;101889.00;;;6.07;78.29
75745;BME280;74462;51.366;-0.222;2023-12-20T02:27:37;101884.79;;;6.10;78.46
75745;BME280;74462;51.366;-0.222;2023-12-20T02:28:42;101883.02;;;6.15;77.96
75745;BME280;74462;51.366;-0.222;2023-12-20T02:29:48;101880.02;;;6.15;78.19
75745;BME280;74462;51.366;-0.222;2023-12-20T02:30:53;101882.41;;;6.17;77.96
75745;BME280;74462;51.366;-0.222;2023-12-20T02:31:58;101875.64;;;6.14;78.02
75745;BME280;74462;51.366;-0.222;2023-12-20T02:33:05;101878.31;;;6.09;78.49
75745;BME280;74462;51.366;-0.222;2023-12-20T02:34:12;101877.70;;;6.07;78.49
75745;BME280;74462;51.366;-0.222;2023-12-20T02:35:16;101876.80;;;6.08;78.36
75745;BME280;74462;51.366;-0.222;2023-12-20T02:36:21;101879.91;;;6.13;78.05
75745;BME280;74462;51.366;-0.222;2023-12-20T02:37:25;101884.12;;;6.13;78.02
75745;BME280;74462;51.366;-0.222;2023-12-20T02:38:30;101884.17;;;6.17;78.10
75745;BME280;74462;51.366;-0.222;2023-12-20T02:39:34;101882.90;;;6.18;78.12
75745;BME280;74462;51.366;-0.222;2023-12-20T02:40:39;101887.35;;;6.17;78.15
75745;BME280;74462;51.366;-0.222;2023-12-20T02:41:43;101882.90;;;6.09;78.20
75745;BME280;74462;51.366;-0.222;2023-12-20T02:42:48;101885.20;;;6.05;78.53
75745;BME280;74462;51.366;-0.222;2023-12-20T02:43:52;101883.11;;;6.08;78.41
75745;BME280;74462;51.366;-0.222;2023-12-20T02:44:56;101880.11;;;6.12;78.21
75745;BME280;74462;51.366;-0.222;2023-12-20T02:46:01;101877.94;;;6.14;78.28
75745;BME280;74462;51.366;-0.222;2023-12-20T02:47:05;101882.96;;;6.12;78.27
75745;BME280;74462;51.366;-0.222;2023-12-20T02:48:10;101885.23;;;6.12;78.15
75745;BME280;74462;51.366;-0.222;2023-12-20T02:49:14;101885.54;;;6.09;78.35
75745;BME280;74462;51.366;-0.222;2023-12-20T02:50:19;101885.86;;;6.10;78.24
75745;BME280;74462;51.366;-0.222;2023-12-20T02:51:23;101892.70;;;6.07;78.53
75745;BME280;74462;51.366;-0.222;2023-12-20T02:52:28;101890.24;;;6.10;78.44
75745;BME280;74462;51.366;-0.222;2023-12-20T02:53:33;101885.73;;;6.09;78.44
75745;BME280;74462;51.366;-0.222;2023-12-20T02:54:37;101887.56;;;6.11;78.37
75745;BME280;74462;51.366;-0.222;2023-12-20T02:55:42;101884.54;;;6.12;78.42
75745;BME280;74462;51.366;-0.222;2023-12-20T02:56:46;101887.98;;;6.14;78.17
75745;BME280;74462;51.366;-0.222;2023-12-20T02:57:51;101882.64;;;6.15;78.10
75745;BME280;74462;51.366;-0.222;2023-12-20T02:58:55;101889.61;;;6.18;78.18
75745;BME280;74462;51.366;-0.222;2023-12-20T03:00:00;101890.73;;;6.16;78.15
75745;BME280;74462;51.366;-0.222;2023-12-20T03:01:04;101890.96;;;6.14;78.12
75745;BME280;74462;51.366;-0.222;2023-12-20T03:02:09;101888.73;;;6.13;77.88
75745;BME280;74462;51.366;-0.222;2023-12-20T03:03:13;101887.70;;;6.17;78.13
75745;BME280;74462;51.366;-0.222;2023-12-20T03:04:18;101886.41;;;6.18;77.84
75745;BME280;74462;51.366;-0.222;2023-12-20T03:05:22;101889.45;;;6.18;77.88
75745;BME280;74462;51.366;-0.222;2023-12-20T03:06:27;101890.45;;;6.14;78.38
75745;BME280;74462;51.366;-0.222;2023-12-20T03:07:31;101892.11;;;6.12;78.22
75745;BME280;74462;51.366;-0.222;2023-12-20T03:08:36;101890.59;;;6.15;78.06
75745;BME280;74462;51.366;-0.222;2023-12-20T03:09:41;101892.52;;;6.15;78.00
75745;BME280;74462;51.366;-0.222;2023-12-20T03:10:46;101893.86;;;6.09;78.38
75745;BME280;74462;51.366;-0.222;2023-12-20T03:11:50;101890.11;;;6.09;78.46
75745;BME280;74462;51.366;-0.222;2023-12-20T03:12:55;101887.95;;;6.15;78.25
75745;BME280;74462;51.366;-0.222;2023-12-20T03:13:59;101887.47;;;6.13;78.21
75745;BME280;74462;51.366;-0.222;2023-12-20T03:15:04;101880.79;;;6.05;78.38
75745;BME280;74462;51.366;-0.222;2023-12-20T03:16:11;101876.60;;;6.04;78.39
75745;BME280;74462;51.366;-0.222;2023-12-20T03:17:15;101876.64;;;6.07;78.15
75745;BME280;74462;51.366;-0.222;2023-12-20T03:18:20;101880.13;;;6.08;78.34
75745;BME280;74462;51.366;-0.222;2023-12-20T03:19:24;101879.30;;;6.07;78.44
75745;BME280;74462;51.366;-0.222;2023-12-20T03:20:29;101878.00;;;6.04;78.50
75745;BME280;74462;51.366;-0.222;2023-12-20T03:21:36;101878.90;;;6.08;78.45
75745;BME280;74462;51.366;-0.222;2023-12-20T03:22:40;101879.50;;;6.06;78.50
75745;BME280;74462;51.366;-0.222;2023-12-20T03:23:45;101880.42;;;6.09;78.31
75745;BME280;74462;51.366;-0.222;2023-12-20T03:24:49;101881.02;;;6.12;78.14
75745;BME280;74462;51.366;-0.222;2023-12-20T03:25:54;101880.10;;;6.12;78.25
75745;BME280;74462;51.366;-0.222;2023-12-20T03:26:58;101879.89;;;6.09;78.33
75745;BME280;74462;51.366;-0.222;2023-12-20T03:28:03;101877.98;;;6.13;78.24
75745;BME280;74462;51.366;-0.222;2023-12-20T03:29:07;101877.25;;;6.13;78.03
75745;BME280;74462;51.366;-0.222;2023-12-20T03:30:13;101876.15;;;6.10;78.27
75745;BME280;74462;51.366;-0.222;2023-12-20T03:31:17;101879.98;;;6.11;78.06
75745;BME280;74462;51.366;-0.222;2023-12-20T03:32:22;101882.99;;;6.11;78.20
75745;BME280;74462;51.366;-0.222;2023-12-20T03:33:27;101881.21;;;6.16;78.10
75745;BME280;74462;51.366;-0.222;2023-12-20T03:34:31;101875.77;;;6.16;78.06
75745;BME280;74462;51.366;-0.222;2023-12-20T03:35:36;101874.48;;;6.17;77.93
75745;BME280;74462;51.366;-0.222;2023-12-20T03:36:40;101877.86;;;6.16;78.00
75745;BME280;74462;51.366;-0.222;2023-12-20T03:37:45;101875.42;;;6.20;77.86
75745;BME280;74462;51.366;-0.222;2023-12-20T03:38:49;101869.48;;;6.18;77.88
75745;BME280;74462;51.366;-0.222;2023-12-20T03:39:54;101865.34;;;6.21;77.95
75745;BME280;74462;51.366;-0.222;2023-12-20T03:40:58;101866.62;;;6.19;77.64
75745;BME280;74462;51.366;-0.222;2023-12-20T03:42:05;101867.59;;;6.17;78.06
75745;BME280;74462;51.366;-0.222;2023-12-20T03:43:09;101870.17;;;6.19;77.90
75745;BME280;74462;51.366;-0.222;2023-12-20T03:44:14;101874.29;;;6.18;77.80
75745;BME280;74462;51.366;-0.222;2023-12-20T03:45:18;101871.64;;;6.17;77.69
75745;BME280;74462;51.366;-0.222;2023-12-20T03:46:23;101872.21;;;6.16;77.73
75745;BME280;74462;51.366;-0.222;2023-12-20T03:47:27;101873.50;;;6.19;77.70
75745;BME280;74462;51.366;-0.222;2023-12-20T03:48:32;101873.64;;;6.16;77.93
75745;BME280;74462;51.366;-0.222;2023-12-20T03:49:36;101873.77;;;6.21;77.46
75745;BME280;74462;51.366;-0.222;2023-12-20T03:50:41;101877.61;;;6.18;77.65
75745;BME280;74462;51.366;-0.222;2023-12-20T03:51:46;101881.15;;;6.22;77.46
75745;BME280;74462;51.366;-0.222;2023-12-20T03:52:50;101882.16;;;6.19;77.58
75745;BME280;74462;51.366;-0.222;2023-12-20T03:53:55;101882.05;;;6.21;77.36
75745;BME280;74462;51.366;-0.222;2023-12-20T03:54:59;101883.83;;;6.25;77.44
75745;BME280;74462;51.366;-0.222;2023-12-20T03:56:04;101886.52;;;6.24;77.59
75745;BME280;74462;51.366;-0.222;2023-12-20T03:57:09;101889.17;;;6.20;77.70
75745;BME280;74462;51.366;-0.222;2023-12-20T03:58:14;101889.14;;;6.29;77.01
75745;BME280;74462;51.366;-0.222;2023-12-20T03:59:20;101897.80;;;6.24;77.16
75745;BME280;74462;51.366;-0.222;2023-12-20T04:00:24;101897.93;;;6.21;77.64
75745;BME280;74462;51.366;-0.222;2023-12-20T04:01:28;101897.78;;;6.21;77.53
75745;BME280;74462;51.366;-0.222;2023-12-20T04:02:33;101902.15;;;6.22;77.67
75745;BME280;74462;51.366;-0.222;2023-12-20T04:03:38;101897.38;;;6.22;77.47
75745;BME280;74462;51.366;-0.222;2023-12-20T04:04:43;101898.46;;;6.21;77.51
75745;BME280;74462;51.366;-0.222;2023-12-20T04:05:47;101899.73;;;6.20;77.51
75745;BME280;74462;51.366;-0.222;2023-12-20T04:06:52;101898.48;;;6.21;77.49
75745;BME280;74462;51.366;-0.222;2023-12-20T04:07:56;101897.20;;;6.18;77.91
75745;BME280;74462;51.366;-0.222;2023-12-20T04:09:01;101894.93;;;6.21;77.72
75745;BME280;74462;51.366;-0.222;2023-12-20T04:10:07;101894.56;;;6.17;77.82
75745;BME280;74462;51.366;-0.222;2023-12-20T04:11:11;101893.01;;;6.17;77.94
75745;BME280;74462;51.366;-0.222;2023-12-20T04:12:16;101897.84;;;6.19;77.83
75745;BME280;74462;51.366;-0.222;2023-12-20T04:13:20;101889.16;;;6.20;77.74
75745;BME280;74462;51.366;-0.222;2023-12-20T04:14:25;101892.61;;;6.26;77.75
75745;BME280;74462;51.366;-0.222;2023-12-20T04:15:30;101890.84;;;6.22;77.68
75745;BME280;74462;51.366;-0.222;2023-12-20T04:16:34;101884.67;;;6.26;77.53
75745;BME280;74462;51.366;-0.222;2023-12-20T04:17:39;101890.39;;;6.24;77.64
75745;BME280;74462;51.366;-0.222;2023-12-20T04:18:43;101885.92;;;6.26;77.62
75745;BME280;74462;51.366;-0.222;2023-12-20T04:19:47;101887.36;;;6.25;77.66
75745;BME280;74462;51.366;-0.222;2023-12-20T04:20:52;101884.61;;;6.27;77.85
75745;BME280;74462;51.366;-0.222;2023-12-20T04:21:56;101890.81;;;6.26;77.57
75745;BME280;74462;51.366;-0.222;2023-12-20T04:23:01;101893.46;;;6.23;77.91
75745;BME280;74462;51.366;-0.222;2023-12-20T04:24:06;101890.35;;;6.21;77.78
75745;BME280;74462;51.366;-0.222;2023-12-20T04:25:11;101891.48;;;6.23;77.75
75745;BME280;74462;51.366;-0.222;2023-12-20T04:26:15;101887.48;;;6.22;77.77
75745;BME280;74462;51.366;-0.222;2023-12-20T04:27:20;101887.14;;;6.22;78.11
75745;BME280;74462;51.366;-0.222;2023-12-20T04:28:24;101884.86;;;6.22;77.64
75745;BME280;74462;51.366;-0.222;2023-12-20T04:29:29;101876.31;;;6.19;78.06
75745;BME280;74462;51.366;-0.222;2023-12-20T04:30:33;101876.79;;;6.25;77.61
75745;BME280;74462;51.366;-0.222;2023-12-20T04:31:38;101876.59;;;6.25;77.87
75745;BME280;74462;51.366;-0.222;2023-12-20T04:32:42;101881.53;;;6.25;77.76
75745;BME280;74462;51.366;-0.222;2023-12-20T04:33:47;101880.39;;;6.23;77.76
75745;BME280;74462;51.366;-0.222;2023-12-20T04:34:51;101878.77;;;6.20;78.03
75745;BME280;74462;51.366;-0.222;2023-12-20T04:35:56;101875.45;;;6.23;77.56
75745;BME280;74462;51.366;-0.222;2023-12-20T04:37:01;101883.45;;;6.21;77.84
75745;BME280;74462;51.366;-0.222;2023-12-20T04:38:06;101877.44;;;6.22;77.90
75745;BME280;74462;51.366;-0.222;2023-12-20T04:39:11;101878.98;;;6.19;77.81
75745;BME280;74462;51.366;-0.222;2023-12-20T04:40:15;101874.42;;;6.22;77.67
75745;BME280;74462;51.366;-0.222;2023-12-20T04:41:20;101874.63;;;6.26;77.75
75745;BME280;74462;51.366;-0.222;2023-12-20T04:42:24;101873.79;;;6.21;77.79
75745;BME280;74462;51.366;-0.222;2023-12-20T04:43:28;101875.50;;;6.18;78.07
75745;BME280;74462;51.366;-0.222;2023-12-20T04:44:33;101878.55;;;6.16;77.87
75745;BME280;74462;51.366;-0.222;2023-12-20T04:45:38;101884.33;;;6.17;78.13
75745;BME280;74462;51.366;-0.222;2023-12-20T04:46:42;101883.39;;;6.19;78.07
75745;BME280;74462;51.366;-0.222;2023-12-20T04:47:47;101883.48;;;6.21;78.03
75745;BME280;74462;51.366;-0.222;2023-12-20T04:48:51;101887.42;;;6.19;77.96
75745;BME280;74462;51.366;-0.222;2023-12-20T04:49:58;101885.60;;;6.21;77.72
75745;BME280;74462;51.366;-0.222;2023-12-20T04:51:04;101885.30;;;6.23;77.75
75745;BME280;74462;51.366;-0.222;2023-12-20T04:52:09;101883.53;;;6.24;77.91
75745;BME280;74462;51.366;-0.222;2023-12-20T04:53:13;101884.67;;;6.22;77.62
75745;BME280;74462;51.366;-0.222;2023-12-20T04:54:18;101883.55;;;6.19;77.91
75745;BME280;74462;51.366;-0.222;2023-12-20T04:55:22;101880.00;;;6.15;77.99
75745;BME280;74462;51.366;-0.222;2023-12-20T04:56:27;101872.42;;;6.20;77.96
75745;BME280;74462;51.366;-0.222;2023-12-20T04:57:31;101867.20;;;6.18;78.08
75745;BME280;74462;51.366;-0.222;2023-12-20T04:58:36;101862.90;;;6.15;77.93
75745;BME280;74462;51.366;-0.222;2023-12-20T04:59:40;101864.75;;;6.13;78.30
75745;BME280;74462;51.366;-0.222;2023-12-20T05:00:45;101868.45;;;6.13;78.09
75745;BME280;74462;51.366;-0.222;2023-12-20T05:01:50;101864.77;;;6.12;78.31
75745;BME280;74462;51.366;-0.222;2023-12-20T05:02:54;101863.80;;;6.10;78.30
75745;BME280;74462;51.366;-0.222;2023-12-20T05:03:59;101865.25;;;6.13;78.41
75745;BME280;74462;51.366;-0.222;2023-12-20T05:05:04;101869.70;;;6.13;78.09
75745;BME280;74462;51.366;-0.222;2023-12-20T05:06:09;101872.89;;;6.12;78.16
75745;BME280;74462;51.366;-0.222;2023-12-20T05:07:13;101869.18;;;6.00;78.52
75745;BME280;74462;51.366;-0.222;2023-12-20T05:08:18;101872.56;;;6.04;78.48
75745;BME280;74462;51.366;-0.222;2023-12-20T05:09:22;101872.79;;;6.06;78.43
75745;BME280;74462;51.366;-0.222;2023-12-20T05:10:27;101876.76;;;6.04;78.33
75745;BME280;74462;51.366;-0.222;2023-12-20T05:11:34;101876.23;;;6.04;78.29
75745;BME280;74462;51.366;-0.222;2023-12-20T05:12:38;101878.86;;;6.09;78.40
75745;BME280;74462;51.366;-0.222;2023-12-20T05:13:43;101881.12;;;6.10;78.28
75745;BME280;74462;51.366;-0.222;2023-12-20T05:14:48;101882.38;;;6.05;78.41
75745;BME280;74462;51.366;-0.222;2023-12-20T05:15:52;101884.34;;;6.00;78.58
75745;BME280;74462;51.366;-0.222;2023-12-20T05:16:57;101881.71;;;6.04;78.50
75745;BME280;74462;51.366;-0.222;2023-12-20T05:18:01;101883.40;;;6.02;78.52
75745;BME280;74462;51.366;-0.222;2023-12-20T05:19:06;101884.03;;;5.99;78.77
75745;BME280;74462;51.366;-0.222;2023-12-20T05:20:11;101881.79;;;5.99;78.68
75745;BME280;74462;51.366;-0.222;2023-12-20T05:21:16;101886.66;;;6.00;78.74
75745;BME280;74462;51.366;-0.222;2023-12-20T05:22:20;101878.32;;;5.97;78.74
75745;BME280;74462;51.366;-0.222;2023-12-20T05:23:25;101879.65;;;5.99;78.87
75745;BME280;74462;51.366;-0.222;2023-12-20T05:24:30;101878.20;;;6.00;78.59
75745;BME280;74462;51.366;-0.222;2023-12-20T05:25:34;101882.91;;;6.01;78.74
75745;BME280;74462;51.366;-0.222;2023-12-20T05:26:39;101881.90;;;5.96;78.83
75745;BME280;74462;51.366;-0.222;2023-12-20T05:27:44;101882.11;;;5.95;78.89
75745;BME280;74462;51.366;-0.222;2023-12-20T05:28:48;101880.25;;;5.97;78.79
75745;BME280;74462;51.366;-0.222;2023-12-20T05:29:52;101875.00;;;5.92;78.98
75745;BME280;74462;51.366;-0.222;2023-12-20T05:31:00;101871.81;;;6.01;78.71
75745;BME280;74462;51.366;-0.222;2023-12-20T05:32:06;101868.56;;;6.02;78.70
75745;BME280;74462;51.366;-0.222;2023-12-20T05:33:10;101872.25;;;6.03;78.73
75745;BME280;74462;51.366;-0.222;2023-12-20T05:34:15;101874.94;;;6.02;78.63
75745;BME280;74462;51.366;-0.222;2023-12-20T05:35:19;101871.08;;;6.05;78.76
75745;BME280;74462;51.366;-0.222;2023-12-20T05:36:25;101873.27;;;6.08;78.69
75745;BME280;74462;51.366;-0.222;2023-12-20T05:37:30;101867.89;;;6.09;78.65
75745;BME280;74462;51.366;-0.222;2023-12-20T05:38:34;101864.40;;;6.08;78.46